Time;durP1;ratioP1;P1;durP2;ratioP2;P2;SDS_P1;SDS_P2;PMS_P1;PMS_P2;Temp;Humidity;BMP_temperature;BMP_pressure;BME280_temperature;BME280_humidity;BME280_pressure;Samples;Min_cycle;Max_cycle;Signal;HPM_P1;HPM_P2
2022/03/08 00:00:27;;;;;;;;;;;;;;;-2.14;86.67;102678.09;2063672;28;42835;-71
2022/03/08 00:01:29;;;;;;;;;;;;;;;-2.06;86.57;102675.00;2063823;28;44572;-72
2022/03/08 00:02:31;;;;;;;;;;;;;;;-1.96;86.64;102669.47;2064008;28;43878;-71
2022/03/08 00:03:34;;;;;;;;;;;;;;;-1.92;85.99;102668.81;2064452;28;43294;-71
2022/03/08 00:04:35;;;;;;;;;;;;;;;-1.94;85.67;102659.94;2064242;28;44335;-71
2022/03/08 00:05:37;;;;;;;;;;;;;;;-1.94;85.31;102670.44;2064121;28;42100;-71
2022/03/08 00:06:38;;;;;;;;;;;;;;;-1.92;85.14;102664.47;2064182;28;41379;-72
2022/03/08 00:07:40;;;;;;;;;;;;;;;-1.93;85.65;102660.03;2064422;28;46212;-71
2022/03/08 00:08:42;;;;;;;;;;;;;;;-1.93;85.32;102661.75;2063881;28;44535;-71
2022/03/08 00:09:44;;;;;;;;;;;;;;;-1.89;85.36;102662.84;2065552;28;20858;-71
2022/03/08 00:10:46;;;;;;;;;;;;;;;-1.93;85.15;102654.78;2064001;28;43898;-71
2022/03/08 00:11:47;;;;;;;;;;;;;;;-1.93;85.27;102657.41;2063794;28;44651;-71
2022/03/08 00:12:52;;;;;;;;;;;;;;;-1.91;85.14;102657.50;2063914;28;44555;-71
2022/03/08 00:13:56;;;;;;;;;;;;;;;-1.92;84.79;102653.06;2064301;28;44001;-71
2022/03/08 00:14:57;;;;;;;;;;;;;;;-1.93;84.95;102654.78;2064526;28;44911;-71
2022/03/08 00:16:02;;;;;;;;;;;;;;;-1.92;85.13;102653.97;2064318;28;44164;-71
2022/03/08 00:17:04;;;;;;;;;;;;;;;-1.88;85.63;102647.19;2064345;28;42900;-71
2022/03/08 00:18:06;;;;;;;;;;;;;;;-1.80;86.10;102652.84;2064499;28;41167;-71
2022/03/08 00:19:07;;;;;;;;;;;;;;;-1.76;86.02;102652.19;2064059;28;43673;-71
2022/03/08 00:20:09;;;;;;;;;;;;;;;-1.78;85.02;102646.84;2064113;28;43329;-71
2022/03/08 00:21:11;;;;;;;;;;;;;;;-1.77;85.11;102653.03;2064019;28;44596;-71
2022/03/08 00:22:13;;;;;;;;;;;;;;;-1.79;84.52;102646.78;2064148;28;44542;-71
2022/03/08 00:23:15;;;;;;;;;;;;;;;-1.82;84.11;102642.25;2064365;28;46573;-71
2022/03/08 00:24:16;;;;;;;;;;;;;;;-1.83;83.98;102640.47;2063705;28;42444;-71
2022/03/08 00:25:18;;;;;;;;;;;;;;;-1.79;84.42;102642.44;2064483;28;45309;-70
2022/03/08 00:26:20;;;;;;;;;;;;;;;-1.80;84.84;102640.59;2064125;28;45238;-72
2022/03/08 00:27:21;;;;;;;;;;;;;;;-1.80;84.26;102639.72;2064707;28;45399;-71
2022/03/08 00:28:25;;;;;;;;;;;;;;;-1.82;84.03;102636.09;2071099;28;46347;-71
2022/03/08 00:29:26;;;;;;;;;;;;;;;-1.87;83.99;102641.09;2071444;28;42263;-71
2022/03/08 00:30:29;;;;;;;;;;;;;;;-1.90;84.13;102640.03;2063374;28;45723;-71
2022/03/08 00:31:30;;;;;;;;;;;;;;;-1.92;84.09;102639.94;2063738;28;25375;-71
2022/03/08 00:32:32;;;;;;;;;;;;;;;-1.91;84.37;102644.38;2063191;28;38604;-71
2022/03/08 00:33:35;;;;;;;;;;;;;;;-1.93;84.16;102639.03;2065046;28;19981;-71
2022/03/08 00:34:38;;;;;;;;;;;;;;;-1.97;84.64;102639.69;2065001;28;20932;-70
2022/03/08 00:35:40;;;;;;;;;;;;;;;-1.98;84.99;102643.13;2063342;28;43371;-71
2022/03/08 00:36:41;;;;;;;;;;;;;;;-2.01;84.60;102642.03;2063253;28;44943;-71
2022/03/08 00:37:44;;;;;;;;;;;;;;;-1.95;85.70;102640.69;2064894;28;45616;-71
2022/03/08 00:38:46;;;;;;;;;;;;;;;-1.95;85.37;102642.41;2063595;28;45369;-71
2022/03/08 00:39:47;;;;;;;;;;;;;;;-1.96;85.79;102635.34;2063626;28;30619;-71
2022/03/08 00:40:49;;;;;;;;;;;;;;;-1.99;85.15;102643.03;2055146;28;45607;-72
2022/03/08 00:41:50;;;;;;;;;;;;;;;-1.95;85.32;102640.69;2063567;28;45449;-71
2022/03/08 00:42:52;;;;;;;;;;;;;;;-1.95;85.71;102638.06;2063763;28;43113;-71
2022/03/08 00:43:54;;;;;;;;;;;;;;;-1.94;85.49;102642.50;2071646;28;44141;-71
2022/03/08 00:44:58;;;;;;;;;;;;;;;-1.97;84.64;102639.69;2064077;28;20008;-71
2022/03/08 00:46:00;;;;;;;;;;;;;;;-1.99;85.12;102635.16;2064228;28;19919;-71
2022/03/08 00:47:02;;;;;;;;;;;;;;;-2.02;84.71;102629.75;2071134;28;47015;-71
2022/03/08 00:48:04;;;;;;;;;;;;;;;-2.06;84.59;102633.94;2064750;28;31038;-71
2022/03/08 00:49:06;;;;;;;;;;;;;;;-2.08;85.27;102632.94;2064614;28;20056;-71
2022/03/08 00:50:12;;;;;;;;;;;;;;;-2.13;85.35;102632.69;2064402;28;45051;-72
2022/03/08 00:51:14;;;;;;;;;;;;;;;-2.17;85.22;102632.41;2064350;28;36432;-72
2022/03/08 00:52:16;;;;;;;;;;;;;;;-2.22;84.85;102633.91;2064025;28;45250;-72
2022/03/08 00:53:20;;;;;;;;;;;;;;;-2.29;85.38;102634.38;2063511;28;42065;-72
2022/03/08 00:54:22;;;;;;;;;;;;;;;-2.35;85.60;102630.56;2063578;28;42343;-72
2022/03/08 00:55:25;;;;;;;;;;;;;;;-2.36;85.39;102628.75;2064234;28;32168;-72
2022/03/08 00:56:28;;;;;;;;;;;;;;;-2.37;86.00;102632.22;2065497;28;20044;-72
2022/03/08 00:57:29;;;;;;;;;;;;;;;-2.33;86.84;102631.56;2062954;28;46615;-72
2022/03/08 00:58:31;;;;;;;;;;;;;;;-2.29;86.76;102631.75;2063338;28;44003;-72
2022/03/08 00:59:33;;;;;;;;;;;;;;;-2.26;87.59;102635.44;2063491;28;44445;-72
2022/03/08 01:00:38;;;;;;;;;;;;;;;-2.27;87.40;102632.72;2056100;28;19922;-72
2022/03/08 01:01:39;;;;;;;;;;;;;;;-2.22;87.72;102626.91;2055172;28;43351;-72
2022/03/08 01:02:42;;;;;;;;;;;;;;;-2.25;87.19;102631.09;2064383;28;19933;-72
2022/03/08 01:03:46;;;;;;;;;;;;;;;-2.28;86.96;102637.03;2064972;28;20776;-72
2022/03/08 01:04:50;;;;;;;;;;;;;;;-2.23;87.53;102632.06;2064284;28;42830;-73
2022/03/08 01:05:52;;;;;;;;;;;;;;;-2.25;86.82;102631.09;2063972;28;45454;-72
2022/03/08 01:06:55;;;;;;;;;;;;;;;-2.24;87.32;102635.50;2064262;28;43138;-72
2022/03/08 01:07:58;;;;;;;;;;;;;;;-2.24;86.90;102632.88;2064066;28;40812;-73
2022/03/08 01:09:01;;;;;;;;;;;;;;;-2.25;86.82;102631.09;2065236;28;19926;-73
2022/03/08 01:10:07;;;;;;;;;;;;;;;-2.26;86.80;102629.25;2071852;28;19996;-72
2022/03/08 01:11:11;;;;;;;;;;;;;;;-2.34;86.51;102624.50;2071353;28;20000;-72
2022/03/08 01:12:13;;;;;;;;;;;;;;;-2.39;86.30;102623.31;2063094;28;43049;-73
2022/03/08 01:13:14;;;;;;;;;;;;;;;-2.43;86.13;102625.69;2071213;28;45728;-72
2022/03/08 01:14:16;;;;;;;;;;;;;;;-2.51;85.97;102620.03;2071072;28;44949;-71
2022/03/08 01:15:19;;;;;;;;;;;;;;;-2.57;85.52;102627.50;2064114;28;43489;-70
2022/03/08 01:16:21;;;;;;;;;;;;;;;-2.64;85.91;102627.97;2062343;28;46066;-71
2022/03/08 01:17:23;;;;;;;;;;;;;;;-2.67;86.47;102623.47;2064025;28;42121;-72
2022/03/08 01:18:27;;;;;;;;;;;;;;;-2.73;86.79;102624.03;2063679;28;45759;-70
2022/03/08 01:19:29;;;;;;;;;;;;;;;-2.76;86.80;102626.44;2064843;28;19926;-70
2022/03/08 01:20:30;;;;;;;;;;;;;;;-2.73;86.86;102623.09;2064560;28;20016;-73
2022/03/08 01:21:36;;;;;;;;;;;;;;;-2.72;87.52;102622.28;2071191;28;45459;-73
2022/03/08 01:22:38;;;;;;;;;;;;;;;-2.69;87.67;102627.72;2063527;28;37568;-70
2022/03/08 01:23:41;;;;;;;;;;;;;;;-2.69;88.36;102638.22;2055036;28;42974;-70
2022/03/08 01:24:42;;;;;;;;;;;;;;;-2.67;88.39;102631.34;2063194;28;36654;-72
2022/03/08 01:25:44;;;;;;;;;;;;;;;-2.67;88.17;102625.16;2064616;28;30657;-73
2022/03/08 01:26:45;;;;;;;;;;;;;;;-2.69;87.93;102633.88;2063792;28;44532;-71
2022/03/08 01:27:49;;;;;;;;;;;;;;;-2.74;86.89;102635.31;2063018;28;45483;-70
2022/03/08 01:28:50;;;;;;;;;;;;;;;-2.77;87.48;102627.25;2064185;28;19922;-71
2022/03/08 01:29:52;;;;;;;;;;;;;;;-2.83;86.35;102632.16;2063614;28;45240;-72
2022/03/08 01:30:54;;;;;;;;;;;;;;;-2.91;86.35;102633.41;2064668;28;19934;-72
2022/03/08 01:31:57;;;;;;;;;;;;;;;-2.96;87.41;102632.22;2064350;28;19930;-72
2022/03/08 01:32:58;;;;;;;;;;;;;;;-3.00;87.68;102631.13;2063577;28;43946;-72
2022/03/08 01:34:01;;;;;;;;;;;;;;;-3.04;87.06;102636.13;2064342;28;35461;-72
2022/03/08 01:35:04;;;;;;;;;;;;;;;-3.05;87.57;102637.84;2063137;28;46681;-72
2022/03/08 01:36:06;;;;;;;;;;;;;;;-3.08;87.28;102627.16;2064226;28;43131;-72
2022/03/08 01:37:07;;;;;;;;;;;;;;;-3.13;86.96;102636.47;2063132;28;21604;-72
2022/03/08 01:38:11;;;;;;;;;;;;;;;-3.16;87.56;102637.19;2064048;28;20057;-72
2022/03/08 01:39:12;;;;;;;;;;;;;;;-3.18;87.72;102636.16;2064367;28;19966;-72
2022/03/08 01:40:15;;;;;;;;;;;;;;;-3.19;87.48;102634.38;2072093;28;19929;-72
2022/03/08 01:41:17;;;;;;;;;;;;;;;-3.19;88.76;102633.50;2071641;28;19933;-72
2022/03/08 01:42:22;;;;;;;;;;;;;;;-3.21;88.67;102636.00;2062389;28;44556;-72
2022/03/08 01:43:24;;;;;;;;;;;;;;;-3.11;89.68;102634.84;2063726;28;45991;-72
2022/03/08 01:44:28;;;;;;;;;;;;;;;-3.05;89.51;102622.13;2064973;28;20020;-72
2022/03/08 01:45:32;;;;;;;;;;;;;;;-3.08;89.86;102628.06;2063733;28;20025;-72
2022/03/08 01:46:36;;;;;;;;;;;;;;;-3.09;88.92;102631.50;2064269;28;20037;-72
2022/03/08 01:47:37;;;;;;;;;;;;;;;-3.08;89.91;102628.06;2063073;28;39977;-72
2022/03/08 01:48:39;;;;;;;;;;;;;;;-3.04;89.39;102628.25;2055435;28;37485;-72
2022/03/08 01:49:43;;;;;;;;;;;;;;;-3.07;88.43;102627.25;2063459;28;19938;-72
2022/03/08 01:50:46;;;;;;;;;;;;;;;-3.08;88.54;102628.06;2063934;28;20056;-72
2022/03/08 01:51:48;;;;;;;;;;;;;;;-3.10;88.76;102623.56;2063577;28;19926;-72
2022/03/08 01:52:50;;;;;;;;;;;;;;;-3.12;88.43;102620.84;2063930;28;43820;-72
2022/03/08 01:53:52;;;;;;;;;;;;;;;-3.13;88.35;102616.41;2063587;28;45313;-72
2022/03/08 01:54:56;;;;;;;;;;;;;;;-3.12;89.04;102620.84;2063648;28;40418;-72
2022/03/08 01:55:57;;;;;;;;;;;;;;;-3.14;88.72;102621.53;2063577;28;43413;-72
2022/03/08 01:57:00;;;;;;;;;;;;;;;-3.16;88.11;102617.94;2064457;28;34203;-72
2022/03/08 01:58:01;;;;;;;;;;;;;;;-3.17;88.56;102626.63;2063441;28;44053;-72
2022/03/08 01:59:03;;;;;;;;;;;;;;;-3.20;88.14;102611.59;2063401;28;46599;-72
2022/03/08 02:00:11;;;;;;;;;;;;;;;-3.20;88.40;102616.84;2063548;28;33636;-71
2022/03/08 02:01:16;;;;;;;;;;;;;;;-3.18;88.18;102619.56;2063940;28;20089;-72
2022/03/08 02:02:19;;;;;;;;;;;;;;;-3.18;88.77;102607.34;2062817;28;46085;-72
2022/03/08 02:03:21;;;;;;;;;;;;;;;-3.15;88.47;102614.50;2064849;28;20005;-72
2022/03/08 02:04:23;;;;;;;;;;;;;;;-3.16;88.91;102613.63;2063595;28;36502;-72
2022/03/08 02:05:26;;;;;;;;;;;;;;;-3.19;87.94;102608.19;2063825;28;43051;-72
2022/03/08 02:06:28;;;;;;;;;;;;;;;-3.20;88.73;102611.59;2063695;28;46219;-72
2022/03/08 02:07:29;;;;;;;;;;;;;;;-3.24;87.42;102614.84;2063680;28;46597;-72
2022/03/08 02:08:31;;;;;;;;;;;;;;;-3.25;88.93;102610.41;2063451;28;43912;-72
2022/03/08 02:09:33;;;;;;;;;;;;;;;-3.24;88.88;102612.25;2063679;28;44560;-72
2022/03/08 02:10:34;;;;;;;;;;;;;;;-3.23;89.61;102606.19;2063448;28;44506;-72
2022/03/08 02:11:36;;;;;;;;;;;;;;;-3.15;91.15;102597.06;2063720;28;45876;-72
2022/03/08 02:12:37;;;;;;;;;;;;;;;-3.17;90.15;102605.66;2063005;28;42884;-72
2022/03/08 02:13:40;;;;;;;;;;;;;;;-3.21;90.45;102601.97;2064754;28;20849;-72
2022/03/08 02:14:42;;;;;;;;;;;;;;;-3.26;89.93;102598.16;2063656;28;45529;-72
2022/03/08 02:15:49;;;;;;;;;;;;;;;-3.31;89.48;102608.34;2063444;28;46140;-72
2022/03/08 02:16:53;;;;;;;;;;;;;;;-3.36;90.13;102601.91;2063686;28;33837;-72
2022/03/08 02:17:58;;;;;;;;;;;;;;;-3.40;89.72;102599.03;2063692;28;46790;-72
2022/03/08 02:19:00;;;;;;;;;;;;;;;-3.43;89.38;102609.31;2063731;28;44577;-72
2022/03/08 02:20:02;;;;;;;;;;;;;;;-3.46;89.31;102599.56;2063635;28;45416;-72
2022/03/08 02:21:08;;;;;;;;;;;;;;;-3.47;90.03;102605.59;2063584;28;45756;-72
2022/03/08 02:22:09;;;;;;;;;;;;;;;-3.53;90.25;102602.63;2063460;28;44188;-71
2022/03/08 02:23:12;;;;;;;;;;;;;;;-3.55;89.40;102602.53;2063353;28;46593;-72
2022/03/08 02:24:13;;;;;;;;;;;;;;;-3.58;90.14;102606.66;2063581;28;43036;-72
2022/03/08 02:25:16;;;;;;;;;;;;;;;-3.60;89.42;102606.56;2063657;28;32555;-72
2022/03/08 02:26:20;;;;;;;;;;;;;;;-3.61;90.10;102609.97;2063299;28;44404;-72
2022/03/08 02:27:22;;;;;;;;;;;;;;;-3.59;89.74;102604.84;2063827;28;39414;-72
2022/03/08 02:28:24;;;;;;;;;;;;;;;-3.62;90.26;102608.19;2063559;28;45253;-71
2022/03/08 02:29:25;;;;;;;;;;;;;;;-3.65;89.92;102610.59;2063855;28;42294;-72
2022/03/08 02:30:28;;;;;;;;;;;;;;;-3.65;89.52;102605.38;2063063;28;45934;-72
2022/03/08 02:31:30;;;;;;;;;;;;;;;-3.63;90.22;102608.97;2063097;28;46886;-72
2022/03/08 02:32:31;;;;;;;;;;;;;;;-3.63;90.20;102603.75;2070955;28;43086;-72
2022/03/08 02:33:33;;;;;;;;;;;;;;;-3.59;90.95;102594.38;2070247;28;45371;-72
2022/03/08 02:34:35;;;;;;;;;;;;;;;-3.60;90.84;102603.94;2054710;28;45438;-71
2022/03/08 02:35:36;;;;;;;;;;;;;;;-3.62;90.33;102592.47;2062095;28;44258;-72
2022/03/08 02:36:38;;;;;;;;;;;;;;;-3.61;91.08;102591.66;2063764;28;45367;-72
2022/03/08 02:37:49;;;;;;;;;;;;;;;-3.53;91.95;102590.44;2063574;28;43065;-72
2022/03/08 02:38:51;;;;;;;;;;;;;;;-3.52;90.90;102586.97;2063125;28;45476;-72
2022/03/08 02:40:11;;;;;;;;;;;;;;;-3.54;90.80;102591.22;2063173;28;45922;-72
2022/03/08 02:41:21;;;;;;;;;;;;;;;-3.53;90.55;102590.44;2063480;28;20041;-72
2022/03/08 02:42:22;;;;;;;;;;;;;;;-3.55;90.43;102594.66;2063532;28;31122;-72
2022/03/08 02:43:24;;;;;;;;;;;;;;;-3.56;91.04;102594.56;2062510;28;42853;-72
2022/03/08 02:44:26;;;;;;;;;;;;;;;-3.61;91.19;102589.03;2062943;28;44588;-72
2022/03/08 02:45:28;;;;;;;;;;;;;;;-3.63;89.93;102587.16;2064607;28;19926;-72
2022/03/08 02:46:32;;;;;;;;;;;;;;;-3.69;89.69;102583.34;2063859;28;27952;-72
2022/03/08 02:47:34;;;;;;;;;;;;;;;-3.71;90.65;102595.44;2064341;28;20792;-72
2022/03/08 02:48:36;;;;;;;;;;;;;;;-3.67;91.27;102586.06;2063370;28;41841;-71
2022/03/08 02:49:38;;;;;;;;;;;;;;;-3.67;91.42;102588.66;2062558;28;44223;-72
2022/03/08 02:50:39;;;;;;;;;;;;;;;-3.62;91.82;102588.94;2063117;28;44608;-71
2022/03/08 02:51:41;;;;;;;;;;;;;;;-3.56;92.37;102586.72;2063636;28;45568;-72
2022/03/08 02:52:44;;;;;;;;;;;;;;;-3.53;91.24;102579.94;2064356;28;19930;-71
2022/03/08 02:53:46;;;;;;;;;;;;;;;-3.49;92.03;102581.94;2062849;28;43452;-72
2022/03/08 02:54:47;;;;;;;;;;;;;;;-3.48;90.69;102583.75;2063169;28;45563;-72
2022/03/08 02:55:49;;;;;;;;;;;;;;;-3.48;90.39;102589.00;2063298;28;44849;-72
2022/03/08 02:56:51;;;;;;;;;;;;;;;-3.43;91.09;102584.03;2063603;28;36268;-72
2022/03/08 02:57:54;;;;;;;;;;;;;;;-3.39;90.90;102578.19;2062930;28;44435;-72
2022/03/08 02:58:56;;;;;;;;;;;;;;;-3.31;91.75;102576.91;2063092;28;45956;-72
2022/03/08 02:59:57;;;;;;;;;;;;;;;-3.34;90.94;102581.06;2062860;28;45725;-72
2022/03/08 03:00:59;;;;;;;;;;;;;;;-3.35;89.93;102582.78;2063893;28;29097;-72
2022/03/08 03:02:03;;;;;;;;;;;;;;;-3.29;90.84;102577.91;2063371;28;25940;-72
2022/03/08 03:03:06;;;;;;;;;;;;;;;-3.33;90.23;102580.25;2063232;28;44608;-72
2022/03/08 03:04:08;;;;;;;;;;;;;;;-3.30;90.56;102577.84;2070315;28;46179;-71
2022/03/08 03:05:10;;;;;;;;;;;;;;;-3.30;90.45;102573.50;2070600;28;45305;-72
2022/03/08 03:06:12;;;;;;;;;;;;;;;-3.30;90.29;102575.22;2063944;28;20915;-72
2022/03/08 03:07:15;;;;;;;;;;;;;;;-3.31;90.81;102573.41;2062600;28;43918;-72
2022/03/08 03:08:16;;;;;;;;;;;;;;;-3.36;89.84;102573.09;2062268;28;43902;-73
2022/03/08 03:09:18;;;;;;;;;;;;;;;-3.37;90.11;102570.41;2062595;28;45622;-72
2022/03/08 03:10:21;;;;;;;;;;;;;;;-3.40;90.29;102575.47;2062861;28;44037;-72
2022/03/08 03:11:25;;;;;;;;;;;;;;;-3.43;89.31;102570.03;2063160;28;45394;-72
2022/03/08 03:12:26;;;;;;;;;;;;;;;-3.49;89.79;102571.47;2063034;28;42507;-72
2022/03/08 03:13:28;;;;;;;;;;;;;;;-3.54;89.58;102572.91;2063908;28;37231;-72
2022/03/08 03:14:29;;;;;;;;;;;;;;;-3.58;89.33;102570.00;2062818;28;45078;-72
2022/03/08 03:15:31;;;;;;;;;;;;;;;-3.65;89.79;102569.63;2071618;28;19952;-72
2022/03/08 03:16:33;;;;;;;;;;;;;;;-3.67;89.76;102572.97;2070355;28;42107;-72
2022/03/08 03:17:35;;;;;;;;;;;;;;;-3.72;89.34;102571.78;2062926;28;43752;-72
2022/03/08 03:18:36;;;;;;;;;;;;;;;-3.73;90.76;102575.19;2061949;28;45810;-72
2022/03/08 03:19:38;;;;;;;;;;;;;;;-3.72;90.15;102570.06;2062519;28;46311;-73
2022/03/08 03:20:39;;;;;;;;;;;;;;;-3.70;90.69;102573.66;2063339;28;42699;-72
2022/03/08 03:21:41;;;;;;;;;;;;;;;-3.73;91.51;102565.66;2062740;28;44006;-72
2022/03/08 03:22:43;;;;;;;;;;;;;;;-3.69;91.22;102571.97;2063214;28;39848;-72
2022/03/08 03:23:47;;;;;;;;;;;;;;;-3.69;91.69;102575.50;2063211;28;46123;-72
2022/03/08 03:24:48;;;;;;;;;;;;;;;-3.65;91.47;102573.97;2063123;28;38700;-72
2022/03/08 03:25:50;;;;;;;;;;;;;;;-3.67;91.77;102575.59;2071436;28;20827;-72
2022/03/08 03:26:51;;;;;;;;;;;;;;;-3.69;90.65;102582.44;2062170;28;43658;-72
2022/03/08 03:27:53;;;;;;;;;;;;;;;-3.59;91.15;102576.03;2062519;28;46114;-72
2022/03/08 03:28:54;;;;;;;;;;;;;;;-3.57;92.02;102567.50;2063049;28;45543;-72
2022/03/08 03:29:56;;;;;;;;;;;;;;;-3.49;91.92;102570.56;2062958;28;46265;-72
2022/03/08 03:30:58;;;;;;;;;;;;;;;-3.46;92.69;102565.53;2062882;28;40198;-72
2022/03/08 03:32:00;;;;;;;;;;;;;;;-3.42;92.34;102571.84;2062179;28;45924;-72
2022/03/08 03:33:03;;;;;;;;;;;;;;;-3.36;91.95;102572.22;2062931;28;46041;-72
2022/03/08 03:34:07;;;;;;;;;;;;;;;-3.38;91.89;102569.50;2064079;28;19941;-72
2022/03/08 03:35:09;;;;;;;;;;;;;;;-3.38;91.28;102565.97;2059690;28;46543;-73
2022/03/08 03:36:10;;;;;;;;;;;;;;;-3.33;91.57;102561.94;2070413;28;45040;-72
2022/03/08 03:37:17;;;;;;;;;;;;;;;-3.30;92.45;102559.50;2071013;28;19914;-72
2022/03/08 03:38:18;;;;;;;;;;;;;;;-3.24;92.68;102562.47;2062744;28;44269;-73
2022/03/08 03:39:20;;;;;;;;;;;;;;;-3.27;91.92;102562.28;2062853;28;38188;-72
2022/03/08 03:40:22;;;;;;;;;;;;;;;-3.30;91.10;102560.41;2063338;28;19973;-73
2022/03/08 03:41:24;;;;;;;;;;;;;;;-3.30;91.27;102564.75;2063543;28;26666;-72
2022/03/08 03:42:25;;;;;;;;;;;;;;;-3.34;91.36;102565.34;2061906;28;44002;-72
2022/03/08 03:43:27;;;;;;;;;;;;;;;-3.36;90.90;102561.72;2063566;28;19992;-73
2022/03/08 03:44:29;;;;;;;;;;;;;;;-3.40;91.01;102565.88;2062466;28;44624;-72
2022/03/08 03:45:30;;;;;;;;;;;;;;;-3.39;91.73;102562.47;2062512;28;42843;-72
2022/03/08 03:46:32;;;;;;;;;;;;;;;-3.40;90.55;102559.75;2062795;28;45612;-72
2022/03/08 03:47:34;;;;;;;;;;;;;;;-3.36;91.43;102561.72;2064993;28;20649;-72
2022/03/08 03:48:36;;;;;;;;;;;;;;;-3.40;91.91;102570.22;2064710;28;44924;-72
2022/03/08 03:49:37;;;;;;;;;;;;;;;-3.42;91.20;102561.38;2064144;28;37489;-73
2022/03/08 03:50:39;;;;;;;;;;;;;;;-3.38;90.94;102568.59;2064042;28;45719;-73
2022/03/08 03:51:41;;;;;;;;;;;;;;;-3.37;91.59;102568.69;2063763;28;44715;-72
2022/03/08 03:52:43;;;;;;;;;;;;;;;-3.31;91.30;102568.16;2064109;28;40348;-73
2022/03/08 03:53:45;;;;;;;;;;;;;;;-3.28;91.65;102574.47;2063807;28;45064;-73
2022/03/08 03:54:47;;;;;;;;;;;;;;;-3.28;91.80;102569.25;2063821;28;44221;-72
2022/03/08 03:55:48;;;;;;;;;;;;;;;-3.28;92.11;102570.97;2064435;28;36053;-72
2022/03/08 03:56:51;;;;;;;;;;;;;;;-3.30;91.62;102573.50;2064458;28;45946;-72
2022/03/08 03:57:53;;;;;;;;;;;;;;;-3.26;91.74;102567.63;2072182;28;42932;-73
2022/03/08 03:58:54;;;;;;;;;;;;;;;-3.30;90.86;102573.50;2071866;28;44383;-72
2022/03/08 03:59:56;;;;;;;;;;;;;;;-3.23;91.75;102571.22;2065441;28;20728;-72
2022/03/08 04:00:58;;;;;;;;;;;;;;;-3.19;90.65;102565.38;2064670;28;37065;-72
2022/03/08 04:01:59;;;;;;;;;;;;;;;-3.21;90.68;102569.59;2064402;28;46845;-73
2022/03/08 04:03:01;;;;;;;;;;;;;;;-3.22;90.65;102570.44;2065012;28;26558;-72
2022/03/08 04:04:03;;;;;;;;;;;;;;;-3.24;91.52;102567.72;2064447;28;44608;-72
2022/03/08 04:05:06;;;;;;;;;;;;;;;-3.28;91.35;102565.72;2063785;28;46280;-72
2022/03/08 04:06:07;;;;;;;;;;;;;;;-3.33;90.50;102562.81;2064215;28;45097;-72
2022/03/08 04:07:09;;;;;;;;;;;;;;;-3.33;90.52;102561.94;2063948;28;46527;-72
2022/03/08 04:08:11;;;;;;;;;;;;;;;-3.35;90.64;102563.56;2064697;28;44262;-72
2022/03/08 04:09:15;;;;;;;;;;;;;;;-3.34;91.27;102560.09;2063875;28;43934;-72
2022/03/08 04:10:17;;;;;;;;;;;;;;;-3.38;90.66;102572.13;2072072;28;46154;-72
2022/03/08 04:11:18;;;;;;;;;;;;;;;-3.35;91.25;102566.19;2071327;28;45390;-73
2022/03/08 04:12:20;;;;;;;;;;;;;;;-3.35;90.49;102561.84;2064658;28;46463;-72
2022/03/08 04:13:22;;;;;;;;;;;;;;;-3.34;91.50;102560.09;2065013;28;19930;-72
2022/03/08 04:14:25;;;;;;;;;;;;;;;-3.34;91.38;102563.66;2064179;28;43120;-72
2022/03/08 04:15:27;;;;;;;;;;;;;;;-3.36;90.58;102562.63;2064154;28;40197;-72
2022/03/08 04:16:28;;;;;;;;;;;;;;;-3.35;91.47;102563.56;2064149;28;43740;-73
2022/03/08 04:17:30;;;;;;;;;;;;;;;-3.31;91.48;102568.16;2063724;28;47133;-72
2022/03/08 04:18:33;;;;;;;;;;;;;;;-3.28;91.85;102570.97;2063663;28;44472;-72
2022/03/08 04:19:34;;;;;;;;;;;;;;;-3.31;92.24;102561.19;2064684;28;43037;-73
2022/03/08 04:20:43;;;;;;;;;;;;;;;-3.35;92.14;102564.44;2065293;28;20048;-72
2022/03/08 04:21:44;;;;;;;;;;;;;;;-3.34;91.88;102566.28;2064000;28;42928;-72
2022/03/08 04:22:46;;;;;;;;;;;;;;;-3.30;91.85;102567.34;2064900;28;26602;-72
2022/03/08 04:23:47;;;;;;;;;;;;;;;-3.29;92.66;102563.91;2064002;28;44423;-72
2022/03/08 04:24:49;;;;;;;;;;;;;;;-3.30;92.12;102562.13;2064173;28;43829;-72
2022/03/08 04:25:51;;;;;;;;;;;;;;;-3.29;91.04;102566.53;2064283;28;45805;-72
2022/03/08 04:26:52;;;;;;;;;;;;;;;-3.28;91.76;102570.97;2064363;28;43319;-72
2022/03/08 04:27:54;;;;;;;;;;;;;;;-3.26;91.96;102569.34;2064097;28;44050;-73
2022/03/08 04:28:55;;;;;;;;;;;;;;;-3.24;92.43;102567.72;2064415;28;44982;-72
2022/03/08 04:29:57;;;;;;;;;;;;;;;-3.21;91.86;102565.28;2064148;28;44500;-72
2022/03/08 04:30:58;;;;;;;;;;;;;;;-3.23;92.19;102564.28;2064838;28;20036;-72
2022/03/08 04:32:00;;;;;;;;;;;;;;;-3.23;92.22;102565.97;2063938;28;44212;-72
2022/03/08 04:33:02;;;;;;;;;;;;;;;-3.19;91.21;102568.00;2064456;28;44555;-72
2022/03/08 04:34:03;;;;;;;;;;;;;;;-3.16;91.59;102566.47;2064140;28;35598;-72
2022/03/08 04:35:05;;;;;;;;;;;;;;;-3.12;92.69;102560.59;2064631;28;44508;-72
2022/03/08 04:36:09;;;;;;;;;;;;;;;-3.10;92.36;102561.56;2063647;28;45408;-72
2022/03/08 04:37:11;;;;;;;;;;;;;;;-3.07;92.53;102561.75;2064386;28;36943;-72
2022/03/08 04:38:12;;;;;;;;;;;;;;;-3.08;92.43;102569.53;2071102;28;48203;-72
2022/03/08 04:39:16;;;;;;;;;;;;;;;-3.05;92.12;102564.47;2072462;28;19929;-72
2022/03/08 04:40:18;;;;;;;;;;;;;;;-3.03;92.52;102577.63;2063687;28;45641;-72
2022/03/08 04:41:23;;;;;;;;;;;;;;;-3.01;92.56;102573.41;2072229;28;19997;-73
2022/03/08 04:42:24;;;;;;;;;;;;;;;-2.98;92.50;102565.72;2070334;28;42435;-73
2022/03/08 04:43:26;;;;;;;;;;;;;;;-2.97;91.28;102572.78;2064549;28;45410;-72
2022/03/08 04:44:27;;;;;;;;;;;;;;;-2.99;91.45;102569.16;2063523;28;45045;-72
2022/03/08 04:45:29;;;;;;;;;;;;;;;-2.94;91.98;102568.63;2064107;28;44458;-72
2022/03/08 04:46:31;;;;;;;;;;;;;;;-2.95;92.08;102565.91;2063453;28;45670;-72
2022/03/08 04:47:35;;;;;;;;;;;;;;;-2.99;91.64;102569.16;2064529;28;38047;-72
2022/03/08 04:48:39;;;;;;;;;;;;;;;-2.98;91.48;102569.25;2063740;28;43798;-72
2022/03/08 04:49:42;;;;;;;;;;;;;;;-2.98;91.38;102569.25;2064969;28;20123;-72
2022/03/08 04:50:44;;;;;;;;;;;;;;;-2.95;91.43;102572.03;2063570;28;42818;-72
2022/03/08 04:51:45;;;;;;;;;;;;;;;-2.96;91.78;102570.25;2064060;28;43908;-72
2022/03/08 04:52:49;;;;;;;;;;;;;;;-2.97;90.97;102568.44;2063658;28;46767;-72
2022/03/08 04:53:51;;;;;;;;;;;;;;;-2.93;91.31;102572.13;2072446;28;20037;-72
2022/03/08 04:54:54;;;;;;;;;;;;;;;-2.94;91.34;102567.72;2070790;28;44003;-72
2022/03/08 04:55:56;;;;;;;;;;;;;;;-2.97;90.93;102563.19;2064441;28;42831;-73
2022/03/08 04:56:58;;;;;;;;;;;;;;;-2.95;91.29;102565.91;2063419;28;44480;-72
2022/03/08 04:57:59;;;;;;;;;;;;;;;-3.00;91.40;102567.34;2071857;28;19923;-72
2022/03/08 04:59:01;;;;;;;;;;;;;;;-3.00;90.64;102562.09;2063635;28;24737;-72
2022/03/08 05:00:05;;;;;;;;;;;;;;;-3.03;91.63;102568.09;2055789;28;44129;-72
2022/03/08 05:01:08;;;;;;;;;;;;;;;-3.03;91.20;102564.53;2072273;28;19932;-72
2022/03/08 05:02:09;;;;;;;;;;;;;;;-3.03;90.71;102572.41;2071118;28;45143;-72
2022/03/08 05:03:11;;;;;;;;;;;;;;;-3.04;91.11;102573.22;2064014;28;44963;-72
2022/03/08 05:04:13;;;;;;;;;;;;;;;-3.03;91.36;102572.41;2064708;28;36109;-72
2022/03/08 05:05:14;;;;;;;;;;;;;;;-2.98;91.92;102579.75;2063258;28;44557;-72
2022/03/08 05:06:17;;;;;;;;;;;;;;;-2.99;91.99;102575.31;2064125;28;44855;-72
2022/03/08 05:07:18;;;;;;;;;;;;;;;-2.96;91.82;102575.50;2063575;28;45725;-72
2022/03/08 05:08:20;;;;;;;;;;;;;;;-2.96;91.65;102569.31;2064640;28;38399;-72
2022/03/08 05:09:22;;;;;;;;;;;;;;;-2.95;91.05;102571.16;2064127;28;43042;-72
2022/03/08 05:10:23;;;;;;;;;;;;;;;-2.97;91.31;102570.16;2063954;28;44398;-72
2022/03/08 05:11:25;;;;;;;;;;;;;;;-2.98;91.43;102571.88;2063943;28;44594;-72
2022/03/08 05:12:26;;;;;;;;;;;;;;;-2.99;91.30;102571.78;2063838;28;43092;-72
2022/03/08 05:13:29;;;;;;;;;;;;;;;-3.01;90.68;102573.41;2063110;28;46733;-73
2022/03/08 05:14:32;;;;;;;;;;;;;;;-3.01;91.85;102576.03;2062645;28;44014;-72
2022/03/08 05:15:33;;;;;;;;;;;;;;;-2.95;92.17;102577.28;2063830;28;36178;-72
2022/03/08 05:16:35;;;;;;;;;;;;;;;-2.97;91.14;102578.91;2064219;28;46047;-72
2022/03/08 05:17:37;;;;;;;;;;;;;;;-2.99;91.85;102582.28;2070992;28;43074;-72
2022/03/08 05:18:39;;;;;;;;;;;;;;;-3.00;91.63;102575.22;2071462;28;45259;-72
2022/03/08 05:19:40;;;;;;;;;;;;;;;-3.01;91.37;102581.28;2063300;28;36623;-72